sensor_id;sensor_type;location;lat;lon;timestamp;P1;durP1;ratioP1;P2;durP2;ratioP2
44143;SDS011;68165;51.920;4.492;2023-04-24T07:46:08;13.98;;;2.63;;
44143;SDS011;68165;51.920;4.492;2023-04-24T10:17:02;5.93;;;1.20;;
44143;SDS011;68165;51.920;4.492;2023-04-24T10:19:28;5.00;;;1.00;;
44143;SDS011;68165;51.920;4.492;2023-04-24T10:21:54;3.40;;;0.90;;
44143;SDS011;68165;51.920;4.492;2023-04-24T10:24:22;5.78;;;1.30;;
44143;SDS011;68165;51.920;4.492;2023-04-24T10:26:47;5.07;;;0.90;;
44143;SDS011;68165;51.920;4.492;2023-04-24T10:29:14;5.90;;;1.00;;
44143;SDS011;68165;51.920;4.492;2023-04-24T10:31:41;6.90;;;1.30;;
44143;SDS011;68165;51.920;4.492;2023-04-24T10:34:08;5.50;;;1.35;;
44143;SDS011;68165;51.920;4.492;2023-04-24T10:36:34;6.60;;;1.17;;
44143;SDS011;68165;51.920;4.492;2023-04-24T10:39:03;8.05;;;1.40;;
44143;SDS011;68165;51.920;4.492;2023-04-24T10:41:32;7.13;;;1.02;;
44143;SDS011;68165;51.920;4.492;2023-04-24T10:44:03;5.90;;;1.30;;
44143;SDS011;68165;51.920;4.492;2023-04-24T10:46:29;6.97;;;1.60;;
44143;SDS011;68165;51.920;4.492;2023-04-24T10:48:55;12.10;;;2.00;;
44143;SDS011;68165;51.920;4.492;2023-04-24T10:51:22;7.75;;;1.45;;
44143;SDS011;68165;51.920;4.492;2023-04-24T10:53:49;8.83;;;1.50;;
44143;SDS011;68165;51.920;4.492;2023-04-24T10:56:16;10.07;;;1.83;;
44143;SDS011;68165;51.920;4.492;2023-04-24T10:58:43;7.07;;;1.47;;
44143;SDS011;68165;51.920;4.492;2023-04-24T11:01:22;4.43;;;1.10;;
44143;SDS011;68165;51.920;4.492;2023-04-24T11:03:50;4.03;;;0.90;;
44143;SDS011;68165;51.920;4.492;2023-04-24T11:06:27;7.43;;;1.20;;
44143;SDS011;68165;51.920;4.492;2023-04-24T11:09:04;8.35;;;1.65;;
44143;SDS011;68165;51.920;4.492;2023-04-24T11:11:31;6.32;;;1.40;;
44143;SDS011;68165;51.920;4.492;2023-04-24T11:19:30;8.20;;;1.77;;
44143;SDS011;68165;51.920;4.492;2023-04-24T11:21:41;3.83;;;0.80;;
44143;SDS011;68165;51.920;4.492;2023-04-24T11:24:27;2.95;;;0.80;;
44143;SDS011;68165;51.920;4.492;2023-04-24T11:26:58;5.13;;;0.80;;
44143;SDS011;68165;51.920;4.492;2023-04-24T11:32:39;4.00;;;0.95;;
44143;SDS011;68165;51.920;4.492;2023-04-24T11:37:42;6.07;;;0.98;;
44143;SDS011;68165;51.920;4.492;2023-04-24T11:40:18;2.47;;;0.80;;
44143;SDS011;68165;51.920;4.492;2023-04-24T11:42:47;4.20;;;0.95;;
44143;SDS011;68165;51.920;4.492;2023-04-24T11:45:18;5.15;;;1.00;;
44143;SDS011;68165;51.920;4.492;2023-04-24T11:47:46;3.90;;;0.80;;
44143;SDS011;68165;51.920;4.492;2023-04-24T11:50:12;4.40;;;1.20;;
44143;SDS011;68165;51.920;4.492;2023-04-24T11:52:39;4.60;;;1.17;;
44143;SDS011;68165;51.920;4.492;2023-04-24T11:57:50;7.38;;;1.45;;
44143;SDS011;68165;51.920;4.492;2023-04-24T12:00:24;10.15;;;1.70;;
44143;SDS011;68165;51.920;4.492;2023-04-24T12:02:53;5.65;;;1.20;;
44143;SDS011;68165;51.920;4.492;2023-04-24T12:05:34;5.32;;;1.40;;
44143;SDS011;68165;51.920;4.492;2023-04-24T12:08:00;6.90;;;1.60;;
44143;SDS011;68165;51.920;4.492;2023-04-24T12:10:27;9.60;;;1.93;;
44143;SDS011;68165;51.920;4.492;2023-04-24T12:12:54;7.47;;;1.75;;
44143;SDS011;68165;51.920;4.492;2023-04-24T12:15:21;7.38;;;1.75;;
44143;SDS011;68165;51.920;4.492;2023-04-24T12:17:47;10.67;;;1.77;;
44143;SDS011;68165;51.920;4.492;2023-04-24T12:20:15;10.57;;;1.80;;
44143;SDS011;68165;51.920;4.492;2023-04-24T12:25:14;8.93;;;1.90;;
44143;SDS011;68165;51.920;4.492;2023-04-24T12:27:41;8.75;;;2.10;;
44143;SDS011;68165;51.920;4.492;2023-04-24T12:30:10;9.32;;;2.20;;
44143;SDS011;68165;51.920;4.492;2023-04-24T12:32:42;11.15;;;2.10;;
44143;SDS011;68165;51.920;4.492;2023-04-24T12:35:08;10.48;;;2.00;;
44143;SDS011;68165;51.920;4.492;2023-04-24T12:37:34;8.83;;;2.40;;
44143;SDS011;68165;51.920;4.492;2023-04-24T12:40:02;9.63;;;1.67;;
44143;SDS011;68165;51.920;4.492;2023-04-24T12:42:32;8.35;;;1.60;;
44143;SDS011;68165;51.920;4.492;2023-04-24T12:44:59;9.80;;;1.70;;
44143;SDS011;68165;51.920;4.492;2023-04-24T12:47:26;10.18;;;1.90;;
44143;SDS011;68165;51.920;4.492;2023-04-24T12:49:52;7.90;;;1.70;;
44143;SDS011;68165;51.920;4.492;2023-04-24T12:52:18;11.55;;;1.80;;
44143;SDS011;68165;51.920;4.492;2023-04-24T12:54:48;8.83;;;1.67;;
44143;SDS011;68165;51.920;4.492;2023-04-24T12:57:14;8.63;;;2.00;;
44143;SDS011;68165;51.920;4.492;2023-04-24T12:59:39;8.33;;;1.57;;
44143;SDS011;68165;51.920;4.492;2023-04-24T13:02:05;12.13;;;1.97;;
44143;SDS011;68165;51.920;4.492;2023-04-24T13:04:31;11.20;;;2.22;;
44143;SDS011;68165;51.920;4.492;2023-04-24T13:06:57;8.57;;;1.95;;
44143;SDS011;68165;51.920;4.492;2023-04-24T13:09:22;11.52;;;2.55;;
44143;SDS011;68165;51.920;4.492;2023-04-24T13:11:49;9.18;;;2.45;;
44143;SDS011;68165;51.920;4.492;2023-04-24T13:14:15;10.88;;;2.00;;
44143;SDS011;68165;51.920;4.492;2023-04-24T13:16:40;12.80;;;2.40;;
44143;SDS011;68165;51.920;4.492;2023-04-24T13:19:06;13.87;;;2.20;;
44143;SDS011;68165;51.920;4.492;2023-04-24T13:21:31;13.30;;;2.93;;
44143;SDS011;68165;51.920;4.492;2023-04-24T13:23:56;10.90;;;2.23;;
44143;SDS011;68165;51.920;4.492;2023-04-24T13:26:22;15.60;;;3.00;;
44143;SDS011;68165;51.920;4.492;2023-04-24T13:28:47;11.98;;;2.67;;
44143;SDS011;68165;51.920;4.492;2023-04-24T13:31:13;18.75;;;2.97;;
44143;SDS011;68165;51.920;4.492;2023-04-24T13:33:38;14.77;;;2.83;;
44143;SDS011;68165;51.920;4.492;2023-04-24T13:36:04;12.87;;;3.23;;
44143;SDS011;68165;51.920;4.492;2023-04-24T13:38:29;12.43;;;3.00;;
44143;SDS011;68165;51.920;4.492;2023-04-24T13:40:54;12.23;;;2.90;;
44143;SDS011;68165;51.920;4.492;2023-04-24T13:43:21;11.68;;;3.00;;
44143;SDS011;68165;51.920;4.492;2023-04-24T13:45:47;13.67;;;2.80;;
44143;SDS011;68165;51.920;4.492;2023-04-24T13:48:12;16.53;;;3.80;;
44143;SDS011;68165;51.920;4.492;2023-04-24T13:50:40;13.50;;;3.30;;
44143;SDS011;68165;51.920;4.492;2023-04-24T13:53:06;16.08;;;3.10;;
44143;SDS011;68165;51.920;4.492;2023-04-24T13:55:32;15.17;;;3.27;;
44143;SDS011;68165;51.920;4.492;2023-04-24T13:57:58;11.93;;;2.65;;
44143;SDS011;68165;51.920;4.492;2023-04-24T14:00:23;14.27;;;2.83;;
44143;SDS011;68165;51.920;4.492;2023-04-24T14:02:49;12.50;;;2.97;;
44143;SDS011;68165;51.920;4.492;2023-04-24T14:05:14;12.03;;;2.47;;
44143;SDS011;68165;51.920;4.492;2023-04-24T14:07:40;11.93;;;2.70;;
44143;SDS011;68165;51.920;4.492;2023-04-24T14:10:06;10.85;;;2.78;;
44143;SDS011;68165;51.920;4.492;2023-04-24T14:12:32;11.43;;;2.70;;
44143;SDS011;68165;51.920;4.492;2023-04-24T14:14:57;13.40;;;3.70;;
44143;SDS011;68165;51.920;4.492;2023-04-24T14:17:23;11.65;;;2.83;;
44143;SDS011;68165;51.920;4.492;2023-04-24T14:19:48;11.13;;;3.10;;
44143;SDS011;68165;51.920;4.492;2023-04-24T14:22:14;14.43;;;2.97;;
44143;SDS011;68165;51.920;4.492;2023-04-24T14:24:39;10.87;;;2.70;;
44143;SDS011;68165;51.920;4.492;2023-04-24T14:27:04;12.87;;;3.03;;
44143;SDS011;68165;51.920;4.492;2023-04-24T14:29:30;16.87;;;3.43;;
44143;SDS011;68165;51.920;4.492;2023-04-24T14:31:55;13.87;;;3.07;;
44143;SDS011;68165;51.920;4.492;2023-04-24T14:34:21;14.13;;;3.00;;
44143;SDS011;68165;51.920;4.492;2023-04-24T14:36:46;17.07;;;4.13;;
44143;SDS011;68165;51.920;4.492;2023-04-24T14:39:11;12.35;;;3.85;;
44143;SDS011;68165;51.920;4.492;2023-04-24T14:41:37;12.15;;;3.20;;
44143;SDS011;68165;51.920;4.492;2023-04-24T14:44:04;15.02;;;3.00;;
44143;SDS011;68165;51.920;4.492;2023-04-24T14:46:30;15.55;;;3.58;;
44143;SDS011;68165;51.920;4.492;2023-04-24T14:48:57;13.55;;;3.78;;
44143;SDS011;68165;51.920;4.492;2023-04-24T14:51:22;13.77;;;2.97;;
44143;SDS011;68165;51.920;4.492;2023-04-24T14:53:48;13.18;;;3.10;;
44143;SDS011;68165;51.920;4.492;2023-04-24T14:56:13;10.73;;;2.90;;
44143;SDS011;68165;51.920;4.492;2023-04-24T14:58:40;10.90;;;2.10;;
44143;SDS011;68165;51.920;4.492;2023-04-24T15:01:05;14.60;;;2.60;;
44143;SDS011;68165;51.920;4.492;2023-04-24T15:03:31;14.13;;;3.27;;
44143;SDS011;68165;51.920;4.492;2023-04-24T15:05:56;14.13;;;3.30;;
44143;SDS011;68165;51.920;4.492;2023-04-24T15:08:22;9.38;;;2.50;;
44143;SDS011;68165;51.920;4.492;2023-04-24T15:10:47;13.33;;;2.50;;
44143;SDS011;68165;51.920;4.492;2023-04-24T15:13:13;11.57;;;2.60;;
44143;SDS011;68165;51.920;4.492;2023-04-24T15:15:38;9.90;;;2.83;;
44143;SDS011;68165;51.920;4.492;2023-04-24T15:18:04;12.98;;;2.70;;
44143;SDS011;68165;51.920;4.492;2023-04-24T15:20:30;12.27;;;2.50;;
44143;SDS011;68165;51.920;4.492;2023-04-24T15:22:56;13.40;;;2.50;;
44143;SDS011;68165;51.920;4.492;2023-04-24T15:25:21;12.30;;;3.08;;
44143;SDS011;68165;51.920;4.492;2023-04-24T15:27:47;13.70;;;2.90;;
44143;SDS011;68165;51.920;4.492;2023-04-24T15:30:14;13.57;;;3.20;;
44143;SDS011;68165;51.920;4.492;2023-04-24T15:32:39;13.87;;;3.50;;
44143;SDS011;68165;51.920;4.492;2023-04-24T15:35:05;13.97;;;3.50;;
44143;SDS011;68165;51.920;4.492;2023-04-24T15:37:31;13.75;;;3.75;;
44143;SDS011;68165;51.920;4.492;2023-04-24T15:39:56;13.27;;;3.40;;
44143;SDS011;68165;51.920;4.492;2023-04-24T15:42:22;12.00;;;2.93;;
44143;SDS011;68165;51.920;4.492;2023-04-24T15:44:47;16.83;;;3.90;;
44143;SDS011;68165;51.920;4.492;2023-04-24T15:47:12;13.93;;;3.63;;
44143;SDS011;68165;51.920;4.492;2023-04-24T15:49:39;15.70;;;3.22;;
44143;SDS011;68165;51.920;4.492;2023-04-24T15:52:05;16.30;;;3.92;;
44143;SDS011;68165;51.920;4.492;2023-04-24T15:54:30;11.87;;;3.63;;
44143;SDS011;68165;51.920;4.492;2023-04-24T16:12:25;11.30;;;2.92;;
44143;SDS011;68165;51.920;4.492;2023-04-24T16:14:52;12.00;;;2.90;;
44143;SDS011;68165;51.920;4.492;2023-04-24T16:17:18;12.70;;;3.38;;
44143;SDS011;68165;51.920;4.492;2023-04-24T16:19:44;13.18;;;3.15;;
44143;SDS011;68165;51.920;4.492;2023-04-24T16:22:09;18.08;;;3.58;;
44143;SDS011;68165;51.920;4.492;2023-04-24T16:24:34;14.63;;;3.85;;
44143;SDS011;68165;51.920;4.492;2023-04-24T16:27:00;14.25;;;3.70;;
44143;SDS011;68165;51.920;4.492;2023-04-24T16:29:25;15.15;;;3.50;;
44143;SDS011;68165;51.920;4.492;2023-04-24T16:31:52;14.93;;;3.20;;
44143;SDS011;68165;51.920;4.492;2023-04-24T16:34:17;13.37;;;3.37;;
44143;SDS011;68165;51.920;4.492;2023-04-24T16:36:42;13.43;;;3.50;;
44143;SDS011;68165;51.920;4.492;2023-04-24T16:39:08;12.27;;;3.00;;
44143;SDS011;68165;51.920;4.492;2023-04-24T16:41:35;13.20;;;3.53;;
44143;SDS011;68165;51.920;4.492;2023-04-24T16:44:00;15.80;;;2.97;;
44143;SDS011;68165;51.920;4.492;2023-04-24T16:46:26;14.75;;;3.40;;
44143;SDS011;68165;51.920;4.492;2023-04-24T16:48:51;12.50;;;2.97;;
44143;SDS011;68165;51.920;4.492;2023-04-24T16:51:16;12.82;;;3.38;;
44143;SDS011;68165;51.920;4.492;2023-04-24T16:53:41;11.40;;;3.27;;
44143;SDS011;68165;51.920;4.492;2023-04-24T16:56:07;11.30;;;3.00;;
44143;SDS011;68165;51.920;4.492;2023-04-24T16:58:32;14.47;;;3.17;;
44143;SDS011;68165;51.920;4.492;2023-04-24T17:00:57;10.77;;;3.13;;
44143;SDS011;68165;51.920;4.492;2023-04-24T17:03:23;11.90;;;3.00;;
44143;SDS011;68165;51.920;4.492;2023-04-24T17:05:48;11.57;;;3.57;;
44143;SDS011;68165;51.920;4.492;2023-04-24T17:08:16;15.30;;;3.30;;
44143;SDS011;68165;51.920;4.492;2023-04-24T17:10:41;16.88;;;3.50;;
44143;SDS011;68165;51.920;4.492;2023-04-24T17:13:07;12.63;;;3.37;;
44143;SDS011;68165;51.920;4.492;2023-04-24T17:15:32;12.52;;;3.72;;
44143;SDS011;68165;51.920;4.492;2023-04-24T17:17:59;11.35;;;3.10;;
44143;SDS011;68165;51.920;4.492;2023-04-24T17:20:25;12.50;;;3.28;;
44143;SDS011;68165;51.920;4.492;2023-04-24T17:22:51;17.53;;;3.50;;
44143;SDS011;68165;51.920;4.492;2023-04-24T17:25:16;13.93;;;3.33;;
44143;SDS011;68165;51.920;4.492;2023-04-24T17:27:41;15.10;;;3.37;;
44143;SDS011;68165;51.920;4.492;2023-04-24T17:30:09;16.63;;;2.92;;
44143;SDS011;68165;51.920;4.492;2023-04-24T17:32:35;13.88;;;3.63;;
44143;SDS011;68165;51.920;4.492;2023-04-24T17:35:00;17.60;;;3.37;;
44143;SDS011;68165;51.920;4.492;2023-04-24T17:37:26;15.73;;;3.47;;
44143;SDS011;68165;51.920;4.492;2023-04-24T17:39:51;15.47;;;3.07;;
44143;SDS011;68165;51.920;4.492;2023-04-24T17:42:17;18.23;;;3.50;;
44143;SDS011;68165;51.920;4.492;2023-04-24T17:44:42;17.10;;;3.27;;
44143;SDS011;68165;51.920;4.492;2023-04-24T17:47:07;15.33;;;3.50;;
44143;SDS011;68165;51.920;4.492;2023-04-24T17:49:33;15.23;;;3.27;;
44143;SDS011;68165;51.920;4.492;2023-04-24T17:51:58;16.43;;;3.37;;
44143;SDS011;68165;51.920;4.492;2023-04-24T17:54:24;13.87;;;3.37;;
44143;SDS011;68165;51.920;4.492;2023-04-24T17:56:49;18.60;;;3.83;;
44143;SDS011;68165;51.920;4.492;2023-04-24T17:59:17;14.93;;;3.25;;
44143;SDS011;68165;51.920;4.492;2023-04-24T18:01:43;15.63;;;3.60;;
44143;SDS011;68165;51.920;4.492;2023-04-24T18:04:08;19.27;;;4.00;;
44143;SDS011;68165;51.920;4.492;2023-04-24T18:06:34;16.60;;;3.83;;
44143;SDS011;68165;51.920;4.492;2023-04-24T18:08:59;14.33;;;2.90;;
44143;SDS011;68165;51.920;4.492;2023-04-24T18:11:24;14.60;;;3.00;;
44143;SDS011;68165;51.920;4.492;2023-04-24T18:13:51;14.03;;;2.93;;
44143;SDS011;68165;51.920;4.492;2023-04-24T18:16:17;13.15;;;2.85;;
44143;SDS011;68165;51.920;4.492;2023-04-24T18:18:44;14.10;;;3.03;;
44143;SDS011;68165;51.920;4.492;2023-04-24T18:21:09;11.50;;;2.90;;
44143;SDS011;68165;51.920;4.492;2023-04-24T18:23:34;13.50;;;2.97;;
44143;SDS011;68165;51.920;4.492;2023-04-24T18:26:00;12.10;;;3.60;;
44143;SDS011;68165;51.920;4.492;2023-04-24T18:28:25;13.90;;;2.60;;
44143;SDS011;68165;51.920;4.492;2023-04-24T18:30:52;13.20;;;3.05;;
44143;SDS011;68165;51.920;4.492;2023-04-24T18:33:17;12.17;;;2.73;;
44143;SDS011;68165;51.920;4.492;2023-04-24T18:35:43;14.80;;;2.97;;
44143;SDS011;68165;51.920;4.492;2023-04-24T18:38:08;11.17;;;2.67;;
44143;SDS011;68165;51.920;4.492;2023-04-24T18:40:34;9.73;;;2.27;;
44143;SDS011;68165;51.920;4.492;2023-04-24T18:42:59;11.52;;;2.90;;
44143;SDS011;68165;51.920;4.492;2023-04-24T18:45:25;14.38;;;2.90;;
44143;SDS011;68165;51.920;4.492;2023-04-24T18:47:50;11.67;;;2.57;;
44143;SDS011;68165;51.920;4.492;2023-04-24T18:50:15;10.13;;;2.70;;
44143;SDS011;68165;51.920;4.492;2023-04-24T18:52:41;11.57;;;2.80;;
44143;SDS011;68165;51.920;4.492;2023-04-24T18:55:06;11.57;;;3.00;;
44143;SDS011;68165;51.920;4.492;2023-04-24T18:57:33;10.15;;;2.60;;
44143;SDS011;68165;51.920;4.492;2023-04-24T18:59:59;16.43;;;2.97;;
44143;SDS011;68165;51.920;4.492;2023-04-24T19:02:24;11.23;;;2.83;;
44143;SDS011;68165;51.920;4.492;2023-04-24T19:04:49;12.27;;;2.83;;
44143;SDS011;68165;51.920;4.492;2023-04-24T19:07:15;13.97;;;3.03;;
44143;SDS011;68165;51.920;4.492;2023-04-24T19:09:40;11.47;;;2.73;;
44143;SDS011;68165;51.920;4.492;2023-04-24T19:12:06;11.23;;;2.87;;
44143;SDS011;68165;51.920;4.492;2023-04-24T19:14:31;12.10;;;2.87;;
44143;SDS011;68165;51.920;4.492;2023-04-24T19:16:57;10.68;;;2.60;;
44143;SDS011;68165;51.920;4.492;2023-04-24T19:19:24;11.10;;;2.50;;
44143;SDS011;68165;51.920;4.492;2023-04-24T19:21:50;13.77;;;2.88;;
44143;SDS011;68165;51.920;4.492;2023-04-24T19:24:15;10.90;;;2.63;;
44143;SDS011;68165;51.920;4.492;2023-04-24T19:26:43;6.72;;;2.47;;
44143;SDS011;68165;51.920;4.492;2023-04-24T19:29:09;7.68;;;2.35;;
44143;SDS011;68165;51.920;4.492;2023-04-24T19:31:34;9.63;;;2.05;;
44143;SDS011;68165;51.920;4.492;2023-04-24T19:34:00;8.93;;;2.22;;
44143;SDS011;68165;51.920;4.492;2023-04-24T19:36:25;10.05;;;2.00;;
44143;SDS011;68165;51.920;4.492;2023-04-24T19:38:52;7.53;;;2.22;;
44143;SDS011;68165;51.920;4.492;2023-04-24T19:41:17;8.20;;;2.42;;
44143;SDS011;68165;51.920;4.492;2023-04-24T19:43:42;6.70;;;2.20;;
44143;SDS011;68165;51.920;4.492;2023-04-24T19:46:08;15.93;;;2.70;;
44143;SDS011;68165;51.920;4.492;2023-04-24T19:48:33;7.47;;;2.30;;
44143;SDS011;68165;51.920;4.492;2023-04-24T19:50:59;10.05;;;2.50;;
44143;SDS011;68165;51.920;4.492;2023-04-24T19:53:25;10.75;;;2.20;;
44143;SDS011;68165;51.920;4.492;2023-04-24T19:55:50;11.93;;;2.40;;
44143;SDS011;68165;51.920;4.492;2023-04-24T19:58:16;10.95;;;2.90;;
44143;SDS011;68165;51.920;4.492;2023-04-24T20:00:41;12.82;;;2.80;;
44143;SDS011;68165;51.920;4.492;2023-04-24T20:03:07;14.38;;;3.10;;
44143;SDS011;68165;51.920;4.492;2023-04-24T20:05:32;16.25;;;2.90;;
44143;SDS011;68165;51.920;4.492;2023-04-24T20:07:57;15.82;;;2.72;;
44143;SDS011;68165;51.920;4.492;2023-04-24T20:10:23;8.85;;;2.83;;
44143;SDS011;68165;51.920;4.492;2023-04-24T20:12:48;10.25;;;2.45;;
44143;SDS011;68165;51.920;4.492;2023-04-24T20:15:14;14.45;;;2.45;;
44143;SDS011;68165;51.920;4.492;2023-04-24T20:17:40;11.10;;;2.55;;
44143;SDS011;68165;51.920;4.492;2023-04-24T20:20:06;13.68;;;2.35;;
44143;SDS011;68165;51.920;4.492;2023-04-24T20:22:32;8.43;;;2.13;;
44143;SDS011;68165;51.920;4.492;2023-04-24T20:25:03;21.42;;;5.88;;
44143;SDS011;68165;51.920;4.492;2023-04-24T20:27:36;14.07;;;4.03;;
44143;SDS011;68165;51.920;4.492;2023-04-24T20:30:02;16.00;;;3.97;;
44143;SDS011;68165;51.920;4.492;2023-04-24T20:32:28;7.50;;;2.30;;
44143;SDS011;68165;51.920;4.492;2023-04-24T20:34:53;12.35;;;3.30;;
44143;SDS011;68165;51.920;4.492;2023-04-24T20:37:18;13.27;;;3.00;;
44143;SDS011;68165;51.920;4.492;2023-04-24T20:39:44;9.73;;;2.47;;
44143;SDS011;68165;51.920;4.492;2023-04-24T20:42:11;14.68;;;1.92;;
44143;SDS011;68165;51.920;4.492;2023-04-24T20:44:37;11.18;;;2.47;;
44143;SDS011;68165;51.920;4.492;2023-04-24T20:47:02;10.40;;;2.40;;
44143;SDS011;68165;51.920;4.492;2023-04-24T20:49:28;13.52;;;2.60;;
44143;SDS011;68165;51.920;4.492;2023-04-24T20:51:53;7.45;;;1.88;;
44143;SDS011;68165;51.920;4.492;2023-04-24T20:54:19;10.50;;;1.83;;
44143;SDS011;68165;51.920;4.492;2023-04-24T20:56:44;8.18;;;1.92;;
44143;SDS011;68165;51.920;4.492;2023-04-24T20:59:11;21.25;;;1.98;;
44143;SDS011;68165;51.920;4.492;2023-04-24T21:01:36;7.47;;;1.95;;
44143;SDS011;68165;51.920;4.492;2023-04-24T21:04:02;9.43;;;2.38;;
44143;SDS011;68165;51.920;4.492;2023-04-24T21:06:28;18.48;;;3.42;;
44143;SDS011;68165;51.920;4.492;2023-04-24T21:08:53;6.97;;;1.58;;
44143;SDS011;68165;51.920;4.492;2023-04-24T21:11:20;16.73;;;3.67;;
44143;SDS011;68165;51.920;4.492;2023-04-24T21:13:45;11.80;;;1.98;;
44143;SDS011;68165;51.920;4.492;2023-04-24T21:16:10;12.30;;;2.60;;
44143;SDS011;68165;51.920;4.492;2023-04-24T21:18:36;8.35;;;2.00;;
44143;SDS011;68165;51.920;4.492;2023-04-24T21:21:05;13.43;;;2.28;;
44143;SDS011;68165;51.920;4.492;2023-04-24T21:23:31;8.18;;;2.13;;
44143;SDS011;68165;51.920;4.492;2023-04-24T21:25:57;6.60;;;1.92;;
44143;SDS011;68165;51.920;4.492;2023-04-24T21:28:22;9.98;;;2.40;;
44143;SDS011;68165;51.920;4.492;2023-04-24T21:30:49;13.98;;;2.35;;
44143;SDS011;68165;51.920;4.492;2023-04-24T21:33:15;9.57;;;2.70;;
44143;SDS011;68165;51.920;4.492;2023-04-24T21:35:41;8.52;;;2.05;;
44143;SDS011;68165;51.920;4.492;2023-04-24T21:38:06;14.07;;;2.05;;
44143;SDS011;68165;51.920;4.492;2023-04-24T21:40:31;14.43;;;2.38;;
44143;SDS011;68165;51.920;4.492;2023-04-24T21:42:57;8.25;;;1.67;;
44143;SDS011;68165;51.920;4.492;2023-04-24T21:45:22;10.32;;;1.95;;
44143;SDS011;68165;51.920;4.492;2023-04-24T21:47:48;11.63;;;2.63;;
44143;SDS011;68165;51.920;4.492;2023-04-24T21:50:13;13.38;;;2.75;;
44143;SDS011;68165;51.920;4.492;2023-04-24T21:52:38;16.48;;;2.80;;
44143;SDS011;68165;51.920;4.492;2023-04-24T21:55:04;15.68;;;2.40;;
44143;SDS011;68165;51.920;4.492;2023-04-24T21:57:30;10.50;;;2.47;;
44143;SDS011;68165;51.920;4.492;2023-04-24T21:59:55;14.88;;;2.20;;
44143;SDS011;68165;51.920;4.492;2023-04-24T22:02:21;11.13;;;2.53;;
44143;SDS011;68165;51.920;4.492;2023-04-24T22:04:46;21.70;;;2.67;;
44143;SDS011;68165;51.920;4.492;2023-04-24T22:07:13;18.58;;;3.75;;
44143;SDS011;68165;51.920;4.492;2023-04-24T22:09:39;11.77;;;2.85;;
44143;SDS011;68165;51.920;4.492;2023-04-24T22:12:04;13.75;;;2.85;;
44143;SDS011;68165;51.920;4.492;2023-04-24T22:14:30;19.00;;;3.35;;
44143;SDS011;68165;51.920;4.492;2023-04-24T22:16:56;11.75;;;2.78;;
44143;SDS011;68165;51.920;4.492;2023-04-24T22:19:21;15.10;;;2.40;;
44143;SDS011;68165;51.920;4.492;2023-04-24T22:21:47;12.32;;;2.63;;
44143;SDS011;68165;51.920;4.492;2023-04-24T22:24:14;19.58;;;2.78;;
44143;SDS011;68165;51.920;4.492;2023-04-24T22:26:39;10.48;;;3.05;;
44143;SDS011;68165;51.920;4.492;2023-04-24T22:29:04;11.05;;;2.40;;
44143;SDS011;68165;51.920;4.492;2023-04-24T22:31:30;13.45;;;2.50;;
44143;SDS011;68165;51.920;4.492;2023-04-24T22:33:55;14.70;;;2.58;;
44143;SDS011;68165;51.920;4.492;2023-04-24T22:36:21;17.42;;;3.00;;
44143;SDS011;68165;51.920;4.492;2023-04-24T22:38:46;13.40;;;2.80;;
44143;SDS011;68165;51.920;4.492;2023-04-24T22:41:11;14.93;;;2.53;;
44143;SDS011;68165;51.920;4.492;2023-04-24T22:43:37;18.73;;;3.17;;
44143;SDS011;68165;51.920;4.492;2023-04-24T22:46:03;18.23;;;2.90;;
44143;SDS011;68165;51.920;4.492;2023-04-24T22:48:28;16.30;;;2.65;;
44143;SDS011;68165;51.920;4.492;2023-04-24T22:50:53;15.20;;;2.25;;
44143;SDS011;68165;51.920;4.492;2023-04-24T22:53:20;13.07;;;3.00;;
44143;SDS011;68165;51.920;4.492;2023-04-24T22:55:45;12.15;;;2.92;;
44143;SDS011;68165;51.920;4.492;2023-04-24T22:58:10;17.90;;;3.13;;
44143;SDS011;68165;51.920;4.492;2023-04-24T23:00:36;18.58;;;2.78;;
44143;SDS011;68165;51.920;4.492;2023-04-24T23:03:01;13.38;;;2.47;;
44143;SDS011;68165;51.920;4.492;2023-04-24T23:05:27;14.23;;;2.88;;
44143;SDS011;68165;51.920;4.492;2023-04-24T23:07:52;17.92;;;3.22;;
44143;SDS011;68165;51.920;4.492;2023-04-24T23:10:18;13.07;;;3.35;;
44143;SDS011;68165;51.920;4.492;2023-04-24T23:12:43;12.65;;;2.60;;
44143;SDS011;68165;51.920;4.492;2023-04-24T23:15:09;14.05;;;2.72;;
44143;SDS011;68165;51.920;4.492;2023-04-24T23:17:35;17.58;;;2.50;;
44143;SDS011;68165;51.920;4.492;2023-04-24T23:20:01;15.40;;;4.18;;
44143;SDS011;68165;51.920;4.492;2023-04-24T23:22:28;11.98;;;3.22;;
44143;SDS011;68165;51.920;4.492;2023-04-24T23:24:53;9.18;;;2.75;;
44143;SDS011;68165;51.920;4.492;2023-04-24T23:27:19;16.95;;;3.35;;
44143;SDS011;68165;51.920;4.492;2023-04-24T23:29:44;21.83;;;3.17;;
44143;SDS011;68165;51.920;4.492;2023-04-24T23:32:11;16.75;;;3.35;;
44143;SDS011;68165;51.920;4.492;2023-04-24T23:34:36;18.35;;;2.80;;
44143;SDS011;68165;51.920;4.492;2023-04-24T23:37:03;21.83;;;3.65;;
44143;SDS011;68165;51.920;4.492;2023-04-24T23:39:30;17.92;;;2.75;;
44143;SDS011;68165;51.920;4.492;2023-04-24T23:41:55;9.90;;;2.25;;
44143;SDS011;68165;51.920;4.492;2023-04-24T23:44:21;16.67;;;3.88;;
44143;SDS011;68165;51.920;4.492;2023-04-24T23:46:46;15.85;;;3.30;;
44143;SDS011;68165;51.920;4.492;2023-04-24T23:49:11;24.45;;;4.30;;
44143;SDS011;68165;51.920;4.492;2023-04-24T23:51:37;24.50;;;4.45;;
44143;SDS011;68165;51.920;4.492;2023-04-24T23:54:02;23.45;;;3.50;;
44143;SDS011;68165;51.920;4.492;2023-04-24T23:56:28;18.58;;;4.85;;
44143;SDS011;68165;51.920;4.492;2023-04-24T23:58:54;20.60;;;3.83;;
